Time;durP1;ratioP1;P1;durP2;ratioP2;P2;SDS_P1;SDS_P2;PMS_P1;PMS_P2;Temp;Humidity;BMP_temperature;BMP_pressure;BME280_temperature;BME280_humidity;BME280_pressure;Samples;Min_cycle;Max_cycle;Signal;HPM_P1;HPM_P2
2021/10/19 00:01:36;;;;;;;11.75;5.97;;;5.40;99.90;;;;;;5050457;28;20490;-78
2021/10/19 00:04:01;;;;;;;;;;;5.40;99.90;;;;;;5050848;28;20017;-78
2021/10/19 00:06:27;;;;;;;11.00;5.63;;;5.40;99.90;;;;;;5050470;28;19917;-78
2021/10/19 00:08:52;;;;;;;8.80;5.40;;;5.30;99.90;;;;;;5051963;28;20104;-78
2021/10/19 00:11:18;;;;;;;;;;;5.30;99.90;;;;;;5052185;28;20108;-79
2021/10/19 00:13:44;;;;;;;12.63;6.78;;;5.30;99.90;;;;;;5051715;28;19937;-78
2021/10/19 00:16:09;;;;;;;;;;;5.40;99.90;;;;;;5050882;28;20485;-79
2021/10/19 00:18:35;;;;;;;16.42;8.00;;;5.30;99.90;;;;;;5050082;28;19916;-79
2021/10/19 00:21:01;;;;;;;;;;;5.30;99.90;;;;;;5050771;28;20033;-78
2021/10/19 00:23:27;;;;;;;15.15;7.28;;;5.30;99.90;;;;;;5050645;28;19912;-79
2021/10/19 00:25:52;;;;;;;;;;;5.30;99.90;;;;;;5050457;28;20037;-79
2021/10/19 00:28:18;;;;;;;12.15;7.43;;;5.30;99.90;;;;;;5050431;28;20046;-79
2021/10/19 00:30:44;;;;;;;11.88;6.88;;;5.30;99.90;;;;;;5051651;28;20032;-76
2021/10/19 00:33:09;;;;;;;;;;;5.30;99.90;;;;;;5050608;28;20086;-78
2021/10/19 00:35:35;;;;;;;9.45;5.50;;;5.30;99.90;;;;;;5051350;28;19904;-80
2021/10/19 00:38:00;;;;;;;;;;;5.30;99.90;;;;;;5051860;28;20029;-79
2021/10/19 00:40:26;;;;;;;13.52;6.47;;;5.30;99.90;;;;;;5051026;28;19909;-78
2021/10/19 00:42:52;;;;;;;;;;;5.30;99.90;;;;;;5051580;28;20024;-79
2021/10/19 00:45:18;;;;;;;19.90;9.55;;;5.30;99.90;;;;;;5051103;28;19919;-78
2021/10/19 00:47:48;;;;;;;;;;;5.40;99.90;;;;;;5051577;28;20029;-80
2021/10/19 00:50:14;;;;;;;12.98;6.88;;;5.40;99.90;;;;;;5051064;28;20364;-78
2021/10/19 00:52:41;;;;;;;13.98;7.38;;;5.50;99.90;;;;;;5051018;28;20040;-76
2021/10/19 00:55:11;;;;;;;12.10;6.72;;;5.50;99.90;;;;;;5049902;28;20041;-78
2021/10/19 00:57:39;;;;;;;12.95;6.63;;;5.50;99.90;;;;;;5051120;28;20575;-78
2021/10/19 01:00:06;;;;;;;15.23;7.63;;;5.50;99.90;;;;;;5050872;28;20037;-79
2021/10/19 01:02:33;;;;;;;11.60;7.05;;;5.50;99.90;;;;;;5051045;28;20589;-79
2021/10/19 01:04:58;;;;;;;;;;;5.50;99.90;;;;;;5051331;28;20119;-79
2021/10/19 01:07:24;;;;;;;15.73;7.88;;;5.50;99.90;;;;;;5050418;28;20015;-80
2021/10/19 01:09:50;;;;;;;18.55;9.10;;;5.40;99.90;;;;;;5049724;28;20048;-79
2021/10/19 01:12:16;;;;;;;15.70;8.93;;;5.40;99.90;;;;;;5051037;28;20082;-79
2021/10/19 01:14:41;;;;;;;;;;;5.40;99.90;;;;;;5051389;28;20075;-78
2021/10/19 01:17:08;;;;;;;16.88;8.07;;;5.40;99.90;;;;;;5049813;28;19907;-78
2021/10/19 01:19:34;;;;;;;19.58;9.27;;;5.40;99.90;;;;;;5049515;28;21094;-79
2021/10/19 01:22:01;;;;;;;;;;;5.30;99.90;;;;;;5049648;28;20421;-78
2021/10/19 01:24:27;;;;;;;;;;;5.30;99.90;;;;;;5049590;28;19911;-78
2021/10/19 01:26:53;;;;;;;26.02;12.57;;;5.20;99.90;;;;;;5049444;28;19909;-78
2021/10/19 01:29:19;;;;;;;24.27;11.85;;;5.30;99.90;;;;;;5050497;28;20036;-77
2021/10/19 01:31:46;;;;;;;;;;;5.30;99.90;;;;;;5050791;28;20037;-78
2021/10/19 01:34:11;;;;;;;22.63;12.00;;;5.30;99.90;;;;;;5050378;28;19908;-77
2021/10/19 01:36:37;;;;;;;;;;;5.30;99.90;;;;;;5049416;28;20463;-77
2021/10/19 01:39:05;;;;;;;21.70;12.15;;;5.30;99.90;;;;;;5049462;28;20003;-78
2021/10/19 01:41:30;;;;;;;21.23;11.57;;;5.30;99.90;;;;;;5048857;28;20036;-79
2021/10/19 01:43:56;;;;;;;;;;;5.30;99.90;;;;;;5049411;28;20409;-78
2021/10/19 01:46:22;;;;;;;23.70;12.55;;;5.30;99.90;;;;;;5050181;28;20435;-79
2021/10/19 01:48:47;;;;;;;;;;;5.20;99.90;;;;;;5049338;28;20449;-79
2021/10/19 01:57:57;;;;;;;27.45;13.45;;;5.20;99.90;;;;;;4136675;28;20127;-80
2021/10/19 02:00:23;;;;;;;;;;;5.20;99.90;;;;;;5049862;28;20537;-81
2021/10/19 02:02:49;;;;;;;22.00;12.15;;;5.10;99.90;;;;;;5049001;28;19905;-80
2021/10/19 02:05:14;;;;;;;19.75;8.75;;;5.10;99.90;;;;;;5048545;28;20555;-80
2021/10/19 02:07:40;;;;;;;;;;;5.10;99.90;;;;;;5049033;28;20061;-80
2021/10/19 02:10:08;;;;;;;16.80;9.43;;;5.20;99.90;;;;;;5048311;28;19916;-80
2021/10/19 02:12:34;;;;;;;15.82;8.82;;;5.20;99.90;;;;;;5046804;28;20033;-80
2021/10/19 02:14:59;;;;;;;;;;;5.20;99.90;;;;;;5048734;28;20021;-80
2021/10/19 02:17:25;;;;;;;14.88;7.65;;;5.20;99.90;;;;;;5047721;28;20374;-79
2021/10/19 02:19:50;;;;;;;;;;;5.20;99.90;;;;;;5048286;28;20033;-80
2021/10/19 02:22:16;;;;;;;16.35;9.02;;;5.10;99.90;;;;;;5048766;28;19999;-80
2021/10/19 02:24:42;;;;;;;16.58;7.90;;;5.20;99.90;;;;;;5049241;28;20493;-80
2021/10/19 02:27:08;;;;;;;;;;;5.20;99.90;;;;;;5049743;28;20036;-80
2021/10/19 02:29:33;;;;;;;11.98;6.90;;;5.20;99.90;;;;;;5049532;28;19908;-79
2021/10/19 02:31:59;;;;;;;;;;;5.20;99.90;;;;;;5049782;28;20052;-80
2021/10/19 02:34:25;;;;;;;13.95;6.32;;;5.20;99.90;;;;;;5049222;28;19915;-80
2021/10/19 02:36:50;;;;;;;;;;;5.20;99.90;;;;;;5048342;28;20045;-79
2021/10/19 02:39:16;;;;;;;15.52;7.63;;;5.20;99.90;;;;;;5047364;28;20388;-79
2021/10/19 02:41:43;;;;;;;14.15;8.20;;;5.30;99.90;;;;;;5049146;28;20040;-79
2021/10/19 02:44:09;;;;;;;13.35;8.23;;;5.20;99.90;;;;;;5047871;28;20032;-79
2021/10/19 02:46:34;;;;;;;;;;;5.20;99.90;;;;;;5049379;28;20405;-79
2021/10/19 02:49:01;;;;;;;15.40;8.30;;;5.20;99.90;;;;;;5047946;28;20425;-79
2021/10/19 02:51:27;;;;;;;15.38;9.32;;;5.20;99.90;;;;;;5047769;28;20035;-80
2021/10/19 02:53:53;;;;;;;;;;;5.10;99.90;;;;;;5049550;28;20095;-81
2021/10/19 02:56:19;;;;;;;16.77;9.70;;;5.10;99.90;;;;;;5049003;28;19963;-81
2021/10/19 02:58:45;;;;;;;;;;;5.10;99.90;;;;;;5048349;28;20045;-80
2021/10/19 03:01:11;;;;;;;16.98;8.23;;;5.10;99.90;;;;;;5047762;28;19908;-80
2021/10/19 03:03:37;;;;;;;14.23;7.45;;;5.10;99.90;;;;;;5051972;28;20025;-80
2021/10/19 03:06:02;;;;;;;;;;;5.10;99.90;;;;;;5048220;28;20052;-79
2021/10/19 03:08:28;;;;;;;11.52;6.72;;;5.10;99.90;;;;;;5048851;28;19999;-77
2021/10/19 03:10:54;;;;;;;12.38;7.75;;;5.10;99.90;;;;;;5047318;28;20029;-78
2021/10/19 03:13:20;;;;;;;;;;;5.10;99.90;;;;;;5049280;28;20052;-78
2021/10/19 03:15:45;;;;;;;12.02;6.35;;;5.10;99.90;;;;;;5047721;28;19959;-79
2021/10/19 03:18:11;;;;;;;10.98;6.22;;;5.10;99.90;;;;;;5048698;28;20041;-77
2021/10/19 03:20:36;;;;;;;;;;;5.10;99.90;;;;;;5047736;28;20037;-79
2021/10/19 03:23:02;;;;;;;10.45;5.45;;;5.10;99.90;;;;;;5047308;28;20081;-78
2021/10/19 03:25:28;;;;;;;13.65;6.45;;;5.10;99.90;;;;;;5048585;28;20037;-78
2021/10/19 03:27:53;;;;;;;8.55;5.72;;;5.20;99.90;;;;;;5047355;28;20021;-79
2021/10/19 03:30:19;;;;;;;11.40;4.93;;;5.20;99.90;;;;;;5051577;28;20025;-79
2021/10/19 03:32:45;;;;;;;13.77;5.50;;;5.20;99.90;;;;;;5052688;28;20036;-78
2021/10/19 03:35:11;;;;;;;9.43;5.45;;;5.30;99.90;;;;;;5052711;28;20053;-79
2021/10/19 03:37:37;;;;;;;9.23;5.30;;;5.40;99.90;;;;;;5051263;28;20036;-78
2021/10/19 03:40:04;;;;;;;;;;;5.50;99.90;;;;;;5051589;28;20028;-79
2021/10/19 03:42:29;;;;;;;9.15;4.97;;;5.50;99.90;;;;;;5050738;28;19911;-79
2021/10/19 03:44:55;;;;;;;;;;;5.60;99.90;;;;;;5052645;28;20112;-80
2021/10/19 03:47:20;;;;;;;7.38;4.38;;;5.60;99.90;;;;;;5050958;28;19959;-79
2021/10/19 03:52:46;;;;;;;7.10;5.05;;;5.60;99.90;;;;;;4964652;28;19928;-77
2021/10/19 03:55:12;;;;;;;;;;;5.60;99.90;;;;;;4996353;28;20030;-76
2021/10/19 03:57:39;;;;;;;8.70;4.28;;;5.60;99.90;;;;;;4994775;28;20352;-75
2021/10/19 04:00:06;;;;;;;9.15;5.70;;;5.70;99.90;;;;;;4978878;28;20031;-76
2021/10/19 04:02:32;;;;;;;21.48;11.40;;;5.60;99.90;;;;;;4996008;28;20026;-76
2021/10/19 04:04:57;;;;;;;;;;;5.60;99.90;;;;;;4995421;28;20034;-77
2021/10/19 04:07:23;;;;;;;7.60;3.80;;;5.60;99.90;;;;;;4995355;28;19909;-77
2021/10/19 04:09:48;;;;;;;;;;;5.70;99.90;;;;;;4995717;28;20022;-76
2021/10/19 04:12:14;;;;;;;6.57;3.30;;;5.70;99.90;;;;;;4994279;28;19973;-77
2021/10/19 04:14:40;;;;;;;6.03;3.65;;;5.70;99.90;;;;;;4996530;28;20501;-77
2021/10/19 04:17:05;;;;;;;8.23;3.70;;;5.70;99.90;;;;;;4995710;28;20355;-76
2021/10/19 04:19:31;;;;;;;;;;;5.70;99.90;;;;;;4998266;28;20505;-76
2021/10/19 04:21:56;;;;;;;7.20;3.70;;;5.80;99.90;;;;;;4998102;28;20282;-77
2021/10/19 04:24:22;;;;;;;10.43;3.75;;;5.80;99.90;;;;;;4980960;28;20026;-76
2021/10/19 04:26:48;;;;;;;;;;;5.90;99.90;;;;;;5000241;28;20035;-76
2021/10/19 04:29:13;;;;;;;7.95;3.78;;;6.00;99.90;;;;;;4982531;28;20385;-76
2021/10/19 04:31:41;;;;;;;8.65;4.90;;;6.00;99.90;;;;;;4995616;28;20050;-76
2021/10/19 04:34:07;;;;;;;8.70;4.78;;;6.20;99.90;;;;;;4994773;28;20042;-76
2021/10/19 04:36:33;;;;;;;;;;;6.10;99.90;;;;;;4977200;28;20026;-76
2021/10/19 04:38:59;;;;;;;11.05;5.97;;;6.10;99.90;;;;;;4994957;28;20528;-76
2021/10/19 04:41:25;;;;;;;13.98;6.15;;;6.10;99.90;;;;;;4991767;28;20446;-77
2021/10/19 04:43:51;;;;;;;10.68;6.30;;;6.10;99.90;;;;;;4993959;28;20038;-76
2021/10/19 04:46:16;;;;;;;;;;;6.10;99.90;;;;;;4993268;28;20041;-76
2021/10/19 04:48:42;;;;;;;9.60;5.50;;;6.10;99.90;;;;;;4993326;28;19960;-76
2021/10/19 04:51:11;;;;;;;;;;;6.10;99.90;;;;;;4994353;28;20118;-75
2021/10/19 04:53:37;;;;;;;8.65;4.70;;;6.10;99.90;;;;;;4994203;28;19914;-76
2021/10/19 04:56:06;;;;;;;9.93;4.82;;;6.10;99.90;;;;;;4994133;28;20049;-75
2021/10/19 04:58:32;;;;;;;16.10;7.22;;;6.10;99.90;;;;;;4994024;28;20030;-76
2021/10/19 05:00:57;;;;;;;;;;;6.10;99.90;;;;;;4977232;28;20080;-76
2021/10/19 05:03:23;;;;;;;11.88;5.53;;;6.20;99.90;;;;;;4994392;28;19910;-76
2021/10/19 05:05:49;;;;;;;;;;;6.10;99.90;;;;;;4977142;28;20462;-76
2021/10/19 05:08:15;;;;;;;13.98;7.38;;;6.10;99.90;;;;;;4992819;28;20369;-76
2021/10/19 05:10:43;;;;;;;;;;;6.10;99.90;;;;;;4994807;28;20394;-75
2021/10/19 05:13:12;;;;;;;13.07;6.00;;;6.00;99.90;;;;;;4994336;28;19909;-76
2021/10/19 05:15:38;;;;;;;10.52;6.20;;;6.10;99.90;;;;;;4995152;28;20026;-76
2021/10/19 05:18:03;;;;;;;;;;;6.10;99.90;;;;;;4994996;28;20026;-75
2021/10/19 05:20:29;;;;;;;14.70;6.25;;;6.10;99.90;;;;;;4968866;28;19994;-77
2021/10/19 05:22:57;;;;;;;;;;;6.10;99.90;;;;;;4990085;28;20045;-76
2021/10/19 05:25:24;;;;;;;14.23;5.18;;;6.10;99.90;;;;;;4976944;28;19944;-76
2021/10/19 05:27:50;;;;;;;13.38;5.15;;;6.10;99.90;;;;;;4980377;28;20034;-76
2021/10/19 05:30:17;;;;;;;8.32;4.43;;;6.20;99.90;;;;;;4992929;28;20952;-76
2021/10/19 05:32:45;;;;;;;9.00;4.55;;;6.20;99.90;;;;;;4992677;28;20034;-76
2021/10/19 05:35:10;;;;;;;7.65;4.97;;;6.30;99.90;;;;;;4994580;28;20061;-75
2021/10/19 05:37:36;;;;;;;;;;;6.40;99.90;;;;;;4977404;28;20027;-76
2021/10/19 05:40:04;;;;;;;10.85;4.05;;;6.50;99.90;;;;;;4995127;28;19937;-75
2021/10/19 05:42:30;;;;;;;7.70;4.25;;;6.50;99.90;;;;;;4994674;28;20026;-76
2021/10/19 05:44:55;;;;;;;;;;;6.70;99.90;;;;;;4977415;28;20081;-75
2021/10/19 05:47:21;;;;;;;9.80;4.30;;;6.70;99.90;;;;;;4994948;28;20356;-75
2021/10/19 05:49:46;;;;;;;;;;;6.70;99.90;;;;;;4995374;28;20486;-76
2021/10/19 05:52:12;;;;;;;13.38;4.88;;;6.70;99.90;;;;;;4990123;28;20005;-76
2021/10/19 05:54:37;;;;;;;;;;;6.80;99.90;;;;;;4975179;28;20062;-75
2021/10/19 05:57:03;;;;;;;11.00;4.10;;;6.80;99.90;;;;;;4974864;28;19913;-76
2021/10/19 05:59:29;;;;;;;;;;;6.90;99.90;;;;;;4974888;28;20031;-75
2021/10/19 06:01:55;;;;;;;6.10;3.88;;;6.90;99.90;;;;;;4976142;28;19906;-75
2021/10/19 06:04:21;;;;;;;6.95;4.20;;;6.90;99.90;;;;;;4979187;28;20530;-76
2021/10/19 06:06:55;;;;;;;;;;;7.00;99.90;;;;;;4982010;28;20066;-76
2021/10/19 06:09:21;;;;;;;16.00;4.50;;;7.00;99.90;;;;;;4973969;28;19945;-76
2021/10/19 06:11:47;;;;;;;;;;;7.10;99.90;;;;;;4972070;28;20038;-75
2021/10/19 06:14:12;;;;;;;8.48;4.18;;;7.10;99.90;;;;;;4970939;28;19906;-75
2021/10/19 06:16:38;;;;;;;;;;;7.10;99.90;;;;;;4973119;28;20510;-75
2021/10/19 06:19:03;;;;;;;7.20;3.83;;;7.20;99.90;;;;;;4972323;28;19980;-76
2021/10/19 06:21:29;;;;;;;9.02;3.60;;;7.30;99.90;;;;;;4970678;28;20515;-75
2021/10/19 06:23:54;;;;;;;;;;;7.50;99.90;;;;;;4972142;28;20037;-75
2021/10/19 06:26:20;;;;;;;6.10;3.47;;;7.60;99.90;;;;;;4970173;28;19922;-76
2021/10/19 06:28:46;;;;;;;;;;;7.70;99.90;;;;;;4972486;28;20023;-76
2021/10/19 06:31:11;;;;;;;8.43;3.35;;;7.70;99.90;;;;;;4971173;28;20293;-75
2021/10/19 06:33:37;;;;;;;;;;;7.90;99.90;;;;;;4971177;28;20041;-76
2021/10/19 06:36:05;;;;;;;8.77;4.75;;;8.00;99.90;;;;;;4970807;28;19910;-76
2021/10/19 06:38:31;;;;;;;14.90;3.38;;;8.10;99.90;;;;;;4970844;28;20027;-76
2021/10/19 06:40:56;;;;;;;;;;;8.10;99.90;;;;;;4970253;28;20035;-76
2021/10/19 06:43:22;;;;;;;14.07;3.45;;;8.10;99.90;;;;;;4970922;28;19906;-76
2021/10/19 06:45:47;;;;;;;;;;;8.10;99.90;;;;;;4971559;28;20038;-76
2021/10/19 06:48:13;;;;;;;14.40;3.65;;;8.10;99.90;;;;;;4969424;28;19961;-77
2021/10/19 06:50:38;;;;;;;;;;;8.20;99.90;;;;;;4970275;28;20106;-76
2021/10/19 06:53:05;;;;;;;8.60;4.57;;;8.20;99.90;;;;;;4970574;28;19921;-75
2021/10/19 06:55:31;;;;;;;8.15;3.25;;;8.40;99.90;;;;;;4971307;28;20058;-75
2021/10/19 06:57:58;;;;;;;;;;;8.80;99.90;;;;;;4971076;28;20031;-76
2021/10/19 07:00:23;;;;;;;6.07;2.95;;;9.50;99.90;;;;;;4969870;28;19906;-76
2021/10/19 07:02:50;;;;;;;3.78;1.80;;;10.20;99.90;;;;;;4952528;28;20038;-75
2021/10/19 07:05:16;;;;;;;4.55;1.70;;;10.70;99.90;;;;;;4968229;28;20042;-75
2021/10/19 07:07:43;;;;;;;4.75;2.03;;;11.10;99.90;;;;;;4968369;28;20489;-75
2021/10/19 07:10:11;;;;;;;5.65;2.25;;;11.40;99.90;;;;;;4968727;28;20418;-74
2021/10/19 07:12:38;;;;;;;7.20;2.33;;;11.60;99.90;;;;;;4969618;28;20043;-75
2021/10/19 07:15:06;;;;;;;8.57;2.67;;;11.70;99.90;;;;;;4969802;28;20491;-75
2021/10/19 07:17:32;;;;;;;7.03;1.73;;;11.90;99.90;;;;;;4968310;28;20035;-75
2021/10/19 07:19:57;;;;;;;;;;;11.90;99.90;;;;;;4970140;28;20081;-75
2021/10/19 07:22:25;;;;;;;6.28;1.45;;;12.10;99.90;;;;;;4951962;28;19980;-75
2021/10/19 07:24:50;;;;;;;5.22;2.10;;;12.30;99.90;;;;;;4952243;28;20455;-76
2021/10/19 07:27:16;;;;;;;;;;;12.50;99.70;;;;;;4970108;28;20030;-74
2021/10/19 07:29:44;;;;;;;2.40;1.55;;;12.60;97.40;;;;;;4969580;28;19906;-75
2021/10/19 07:32:10;;;;;;;2.58;1.27;;;12.60;98.30;;;;;;4951941;28;20041;-75
2021/10/19 07:34:35;;;;;;;;;;;12.60;98.40;;;;;;4970100;28;20023;-76
2021/10/19 07:37:01;;;;;;;2.63;1.35;;;12.70;97.60;;;;;;4969811;28;19969;-75
2021/10/19 07:39:26;;;;;;;;;;;12.90;97.80;;;;;;4969850;28;20077;-75
2021/10/19 07:41:52;;;;;;;4.35;1.65;;;12.90;97.40;;;;;;4969544;28;19906;-75
2021/10/19 07:44:18;;;;;;;;;;;13.00;97.60;;;;;;4969774;28;20031;-75
2021/10/19 07:46:44;;;;;;;4.13;1.13;;;13.20;97.20;;;;;;4969397;28;19964;-76
2021/10/19 07:49:10;;;;;;;;;;;13.30;97.20;;;;;;4968547;28;20074;-75
2021/10/19 07:51:36;;;;;;;3.25;1.02;;;13.40;95.90;;;;;;4951745;28;19918;-76
2021/10/19 07:54:01;;;;;;;;;;;13.60;96.10;;;;;;4968615;28;20101;-74
2021/10/19 07:56:27;;;;;;;5.60;1.48;;;13.80;95.40;;;;;;4969067;28;19963;-75
2021/10/19 07:58:53;;;;;;;;;;;14.00;95.00;;;;;;4968241;28;20169;-75
2021/10/19 08:01:18;;;;;;;4.18;1.67;;;14.30;93.50;;;;;;4969158;28;19993;-75
2021/10/19 08:03:44;;;;;;;;;;;14.50;93.20;;;;;;4968202;28;20034;-74
2021/10/19 08:06:10;;;;;;;3.95;1.85;;;14.80;92.00;;;;;;4967757;28;19953;-74
2021/10/19 08:08:37;;;;;;;3.50;1.63;;;15.00;91.60;;;;;;4969006;28;20022;-75
2021/10/19 08:11:07;;;;;;;3.88;1.42;;;15.30;90.30;;;;;;4967788;28;20031;-74
2021/10/19 08:13:33;;;;;;;7.30;2.13;;;15.70;87.80;;;;;;4969088;28;20085;-75
2021/10/19 08:15:59;;;;;;;5.68;1.80;;;16.00;83.60;;;;;;4969664;28;20034;-75
2021/10/19 08:18:25;;;;;;;21.55;2.63;;;16.50;80.40;;;;;;4972447;28;20019;-76
2021/10/19 08:20:51;;;;;;;3.15;1.35;;;16.80;76.70;;;;;;4972582;28;20078;-75
2021/10/19 08:23:16;;;;;;;3.80;1.90;;;17.30;74.70;;;;;;4955418;28;20153;-76
2021/10/19 08:25:43;;;;;;;4.32;2.00;;;17.70;72.80;;;;;;4972386;28;20654;-75
2021/10/19 08:28:09;;;;;;;3.50;1.55;;;18.00;69.40;;;;;;4971234;28;20027;-76
2021/10/19 08:30:34;;;;;;;5.82;2.22;;;18.30;68.80;;;;;;4971107;28;20045;-76
2021/10/19 08:33:01;;;;;;;4.03;1.95;;;18.50;67.10;;;;;;4970983;28;20071;-75
2021/10/19 08:35:27;;;;;;;3.95;1.60;;;18.70;64.80;;;;;;4972115;28;20342;-75
2021/10/19 08:37:53;;;;;;;3.97;1.67;;;19.00;64.70;;;;;;4972040;28;20507;-76
2021/10/19 08:40:20;;;;;;;4.25;1.77;;;19.60;62.70;;;;;;4971885;28;20023;-77
2021/10/19 08:42:51;;;;;;;4.28;1.73;;;20.10;60.30;;;;;;4972067;28;20089;-76
2021/10/19 08:45:18;;;;;;;4.20;1.77;;;20.10;57.80;;;;;;4954818;28;20085;-76
2021/10/19 08:47:45;;;;;;;3.17;1.40;;;19.80;57.40;;;;;;4971097;28;20023;-76
2021/10/19 08:50:13;;;;;;;3.75;1.42;;;19.50;56.90;;;;;;4970989;28;20030;-76
2021/10/19 08:52:38;;;;;;;5.07;1.60;;;19.10;56.80;;;;;;4970541;28;20062;-76
2021/10/19 08:55:05;;;;;;;4.18;1.83;;;18.30;58.10;;;;;;4971760;28;20407;-75
2021/10/19 08:57:32;;;;;;;5.07;1.92;;;17.70;59.60;;;;;;4971846;28;20073;-76
2021/10/19 08:59:58;;;;;;;4.30;1.63;;;17.30;61.20;;;;;;4971440;28;20039;-75
2021/10/19 09:02:40;;;;;;;3.97;2.08;;;16.90;62.40;;;;;;4971471;28;20399;-75
2021/10/19 09:05:18;;;;;;;3.45;1.73;;;16.70;63.60;;;;;;4970462;28;20046;-75
2021/10/19 09:07:57;;;;;;;4.65;1.40;;;16.70;63.50;;;;;;4973120;28;20026;-75
2021/10/19 09:10:24;;;;;;;4.07;1.35;;;16.90;63.00;;;;;;4970596;28;20035;-76
2021/10/19 09:12:57;;;;;;;2.30;1.40;;;17.40;61.20;;;;;;4970171;28;20039;-76
2021/10/19 09:15:28;;;;;;;2.85;1.35;;;17.80;59.70;;;;;;4971787;28;20094;-75
2021/10/19 09:17:54;;;;;;;4.97;1.50;;;18.00;59.10;;;;;;4971855;28;20035;-76
2021/10/19 09:20:20;;;;;;;3.83;1.50;;;18.40;58.30;;;;;;4970076;28;20019;-75
2021/10/19 09:23:00;;;;;;;7.53;1.60;;;18.90;57.50;;;;;;4971179;28;20066;-76
2021/10/19 09:25:35;;;;;;;4.15;1.48;;;19.80;55.60;;;;;;4971313;28;20027;-75
2021/10/19 09:28:04;;;;;;;4.18;1.52;;;20.60;53.20;;;;;;4970018;28;20046;-76
2021/10/19 09:30:43;;;;;;;4.43;2.20;;;21.00;52.40;;;;;;4969842;28;20027;-77
2021/10/19 09:33:15;;;;;;;5.63;1.73;;;21.30;50.60;;;;;;4971231;28;20033;-76
2021/10/19 09:35:42;;;;;;;3.17;1.77;;;21.40;50.60;;;;;;4971153;28;20035;-77
2021/10/19 09:38:11;;;;;;;3.53;1.63;;;21.60;49.20;;;;;;4969843;28;20041;-76
2021/10/19 09:40:40;;;;;;;5.03;1.88;;;21.50;49.40;;;;;;4970911;28;20034;-76
2021/10/19 09:43:11;;;;;;;3.35;1.85;;;21.50;48.70;;;;;;4970933;28;20164;-75
2021/10/19 09:45:43;;;;;;;2.95;1.83;;;21.20;48.90;;;;;;4971008;28;20026;-76
2021/10/19 09:48:15;;;;;;;3.35;1.65;;;21.00;49.60;;;;;;4967788;28;20783;-76
2021/10/19 09:50:43;;;;;;;5.15;1.48;;;20.80;50.10;;;;;;4969346;28;20585;-75
2021/10/19 09:53:13;;;;;;;5.53;2.33;;;20.20;51.20;;;;;;4970935;28;20046;-76
2021/10/19 09:55:41;;;;;;;6.53;2.33;;;19.80;52.10;;;;;;4970853;28;20031;-76
2021/10/19 09:58:07;;;;;;;3.97;2.35;;;19.40;52.40;;;;;;4970595;28;20110;-75
2021/10/19 10:00:33;;;;;;;5.95;2.53;;;19.00;52.90;;;;;;4969495;28;20472;-76
2021/10/19 10:03:03;;;;;;;5.00;2.35;;;18.50;53.80;;;;;;4970575;28;20030;-76
2021/10/19 10:05:33;;;;;;;6.40;2.72;;;18.10;55.70;;;;;;4970733;28;20041;-74
2021/10/19 10:08:00;;;;;;;5.63;2.38;;;17.70;56.80;;;;;;4969385;28;20029;-76
2021/10/19 10:10:27;;;;;;;7.93;2.80;;;17.50;57.60;;;;;;4953195;28;20035;-76
2021/10/19 10:13:00;;;;;;;6.00;3.15;;;17.30;58.30;;;;;;4969432;28;20035;-76
2021/10/19 10:15:31;;;;;;;4.90;2.15;;;17.10;58.70;;;;;;4970548;28;20027;-75
2021/10/19 10:18:01;;;;;;;5.65;2.60;;;16.90;59.30;;;;;;4970474;28;20023;-76
2021/10/19 10:20:37;;;;;;;5.68;2.70;;;16.80;60.30;;;;;;4970257;28;20031;-75
2021/10/19 10:23:16;;;;;;;5.35;2.58;;;16.70;60.50;;;;;;4970286;28;20481;-75
2021/10/19 10:25:43;;;;;;;4.15;2.50;;;16.50;61.10;;;;;;4968808;28;20047;-75
2021/10/19 10:28:16;;;;;;;7.30;2.30;;;16.60;60.90;;;;;;4970296;28;20117;-75
2021/10/19 10:30:45;;;;;;;6.40;2.17;;;16.50;60.90;;;;;;4968811;28;20495;-75
2021/10/19 10:33:11;;;;;;;5.75;2.65;;;16.40;61.90;;;;;;4970082;28;20030;-75
2021/10/19 10:35:43;;;;;;;4.32;2.58;;;16.30;61.50;;;;;;4970035;28;20027;-75
2021/10/19 10:38:08;;;;;;;5.18;2.97;;;16.30;62.20;;;;;;4968778;28;20077;-75
2021/10/19 10:40:38;;;;;;;4.13;2.88;;;16.30;62.70;;;;;;4969487;28;20602;-75
2021/10/19 10:43:19;;;;;;;6.50;2.90;;;16.30;62.90;;;;;;4968682;28;20030;-75
2021/10/19 10:45:47;;;;;;;5.70;2.70;;;16.30;62.80;;;;;;4968480;28;20453;-75
2021/10/19 10:48:16;;;;;;;6.25;2.80;;;16.30;63.10;;;;;;4969963;28;20054;-76
2021/10/19 10:50:42;;;;;;;4.13;2.30;;;16.30;62.90;;;;;;4968384;28;20495;-74
2021/10/19 10:53:14;;;;;;;7.45;3.20;;;16.30;63.30;;;;;;4970029;28;20141;-75
2021/10/19 10:55:48;;;;;;;6.25;3.40;;;16.30;63.30;;;;;;4969871;28;20034;-74
2021/10/19 10:58:32;;;;;;;5.38;2.83;;;16.30;63.50;;;;;;4968691;28;20078;-75
2021/10/19 11:01:00;;;;;;;7.97;3.50;;;16.30;64.10;;;;;;4970089;28;20061;-74
2021/10/19 11:03:26;;;;;;;11.15;3.00;;;16.30;64.30;;;;;;4969831;28;20022;-74
2021/10/19 11:05:58;;;;;;;7.82;2.90;;;16.30;64.70;;;;;;4969596;28;20501;-74
2021/10/19 11:08:27;;;;;;;5.72;2.95;;;16.40;65.30;;;;;;4968349;28;20073;-74
2021/10/19 11:11:17;;;;;;;6.65;2.80;;;16.40;65.00;;;;;;4968619;28;20042;-74
2021/10/19 11:13:58;;;;;;;4.35;2.60;;;16.40;64.20;;;;;;4969952;28;20031;-74
2021/10/19 11:16:28;;;;;;;5.13;2.38;;;16.30;63.90;;;;;;4968441;28;20035;-75
2021/10/19 11:18:54;;;;;;;5.78;3.00;;;16.30;64.30;;;;;;4968622;28;20054;-75
2021/10/19 11:21:20;;;;;;;4.10;2.00;;;16.40;64.80;;;;;;4969989;28;20055;-74
2021/10/19 11:23:48;;;;;;;5.28;1.90;;;16.40;63.70;;;;;;4968722;28;20089;-75
2021/10/19 11:26:14;;;;;;;4.35;1.63;;;16.40;63.40;;;;;;4970016;28;20035;-75
2021/10/19 11:28:43;;;;;;;6.82;1.70;;;16.40;62.60;;;;;;4969903;28;20033;-74
2021/10/19 11:31:14;;;;;;;3.72;1.88;;;16.50;63.20;;;;;;4970039;28;20055;-75
2021/10/19 11:33:45;;;;;;;4.15;1.85;;;16.50;62.90;;;;;;4968717;28;20031;-74
2021/10/19 11:36:12;;;;;;;5.07;1.50;;;16.50;63.10;;;;;;4968391;28;20045;-75
2021/10/19 11:38:48;;;;;;;6.25;1.80;;;16.50;62.60;;;;;;4969249;28;20031;-75
2021/10/19 11:41:17;;;;;;;3.30;1.73;;;16.50;61.80;;;;;;4969643;28;20533;-75
2021/10/19 11:43:51;;;;;;;3.05;1.52;;;16.50;61.50;;;;;;4968202;28;20035;-75
2021/10/19 11:46:20;;;;;;;5.03;1.40;;;16.50;61.70;;;;;;4969384;28;20042;-75
2021/10/19 11:48:50;;;;;;;5.88;2.25;;;16.50;61.40;;;;;;4968164;28;20026;-74
2021/10/19 11:51:18;;;;;;;4.35;1.75;;;16.50;61.60;;;;;;4970397;28;20051;-76
2021/10/19 11:53:48;;;;;;;7.47;2.63;;;16.50;61.40;;;;;;4973106;28;20027;-75
2021/10/19 11:56:16;;;;;;;2.75;1.90;;;16.50;61.50;;;;;;4971627;28;20042;-75
2021/10/19 11:58:54;;;;;;;5.63;2.35;;;16.60;61.50;;;;;;4971773;28;20063;-75
2021/10/19 12:01:22;;;;;;;5.82;1.92;;;16.60;61.40;;;;;;4972976;28;20033;-75
2021/10/19 12:03:59;;;;;;;3.63;2.10;;;16.50;60.80;;;;;;4971662;28;20429;-75
2021/10/19 12:06:26;;;;;;;5.97;1.73;;;16.50;60.80;;;;;;4972847;28;20046;-74
2021/10/19 12:08:53;;;;;;;4.63;2.30;;;16.50;60.90;;;;;;4971698;28;20149;-74
2021/10/19 12:11:23;;;;;;;5.22;1.80;;;16.60;61.10;;;;;;4972977;28;20030;-74
2021/10/19 12:13:56;;;;;;;3.60;1.67;;;16.60;61.10;;;;;;4972786;28;20030;-74
2021/10/19 12:16:28;;;;;;;5.85;2.13;;;16.70;61.60;;;;;;4972530;28;20041;-75
2021/10/19 12:18:56;;;;;;;4.75;1.90;;;16.80;61.00;;;;;;4972666;28;20041;-75
2021/10/19 12:21:22;;;;;;;9.32;1.75;;;16.90;60.70;;;;;;4971542;28;20062;-74
2021/10/19 12:23:53;;;;;;;4.25;1.63;;;16.90;60.30;;;;;;4972582;28;20050;-75
2021/10/19 12:26:21;;;;;;;5.45;2.22;;;17.00;60.30;;;;;;4972240;28;20043;-75
2021/10/19 12:28:49;;;;;;;3.47;1.80;;;17.00;59.70;;;;;;4972820;28;20034;-75
2021/10/19 12:31:15;;;;;;;4.05;1.65;;;17.00;59.70;;;;;;4972574;28;20456;-75
2021/10/19 12:33:41;;;;;;;2.53;1.33;;;17.10;60.20;;;;;;4972480;28;20033;-74
2021/10/19 12:36:11;;;;;;;4.38;1.65;;;17.20;59.50;;;;;;4972632;28;20030;-75
2021/10/19 12:38:41;;;;;;;3.17;1.83;;;17.30;59.30;;;;;;4972388;28;20109;-74
2021/10/19 12:41:10;;;;;;;3.38;1.98;;;17.20;59.10;;;;;;4956409;28;20039;-75
2021/10/19 12:43:38;;;;;;;3.60;2.20;;;17.40;59.20;;;;;;4972386;28;20034;-75
2021/10/19 12:46:08;;;;;;;4.05;1.48;;;17.50;58.70;;;;;;4972288;28;20035;-74
2021/10/19 12:48:37;;;;;;;7.93;2.90;;;17.50;58.60;;;;;;4972146;28;20023;-74
2021/10/19 12:51:06;;;;;;;5.68;2.17;;;17.60;58.40;;;;;;4971736;28;20407;-74
2021/10/19 12:53:32;;;;;;;4.18;2.60;;;17.60;58.20;;;;;;4970725;28;20517;-75
2021/10/19 12:55:57;;;;;;;4.22;2.20;;;17.60;58.00;;;;;;4954770;28;20031;-74
2021/10/19 12:58:24;;;;;;;4.72;1.92;;;17.70;57.60;;;;;;4970741;28;20491;-75
2021/10/19 13:00:50;;;;;;;5.53;2.13;;;17.60;57.90;;;;;;4970646;28;20514;-75
2021/10/19 13:03:15;;;;;;;4.85;2.28;;;17.50;58.10;;;;;;4971234;28;20513;-75
2021/10/19 13:05:43;;;;;;;5.25;2.38;;;17.50;58.40;;;;;;4971857;28;20035;-74
2021/10/19 13:08:08;;;;;;;4.93;2.67;;;17.40;58.40;;;;;;4971847;28;20040;-76
2021/10/19 13:10:34;;;;;;;5.57;2.65;;;17.40;58.90;;;;;;4971692;28;20058;-76
2021/10/19 13:13:00;;;;;;;5.68;2.50;;;17.30;59.50;;;;;;4970428;28;20063;-76
2021/10/19 13:15:26;;;;;;;5.72;2.88;;;17.20;59.70;;;;;;4971149;28;20031;-76
2021/10/19 13:17:51;;;;;;;8.45;2.55;;;17.10;59.80;;;;;;4954329;28;20045;-75